Time;durP1;ratioP1;P1;durP2;ratioP2;P2;SDS_P1;SDS_P2;PMS_P1;PMS_P2;Temp;Humidity;BMP_temperature;BMP_pressure;BME280_temperature;BME280_humidity;BME280_pressure;Samples;Min_cycle;Max_cycle;Signal;HPM_P1;HPM_P2
2022/12/04 00:01:10;;;;;;;19.98;10.95;;;;;;;1.64;48.84;101315.22;5051248;28;20045;-71
2022/12/04 00:03:38;;;;;;;19.40;10.52;;;;;;;1.63;48.91;101321.56;5051088;28;20226;-71
2022/12/04 00:06:08;;;;;;;22.02;11.80;;;;;;;1.62;48.95;101314.41;5031506;28;20049;-70
2022/12/04 00:08:36;;;;;;;20.98;10.60;;;;;;;1.64;48.89;101314.34;5051244;28;20041;-71
2022/12/04 00:11:06;;;;;;;20.05;10.68;;;;;;;1.65;48.82;101316.13;5050346;28;20052;-71
2022/12/04 00:13:36;;;;;;;22.52;11.43;;;;;;;1.63;48.85;101304.50;5050363;28;20051;-71
2022/12/04 00:16:04;;;;;;;21.10;11.05;;;;;;;1.62;48.92;101303.63;5050261;28;20107;-71
2022/12/04 00:18:33;;;;;;;18.48;9.90;;;;;;;1.63;49.15;101300.00;5051276;28;20041;-71
2022/12/04 00:21:06;;;;;;;20.27;10.95;;;;;;;1.65;48.75;101300.81;5049913;28;20052;-71
2022/12/04 00:23:35;;;;;;;20.77;10.35;;;;;;;1.64;48.85;101292.78;5032170;28;20570;-70
2022/12/04 00:26:04;;;;;;;22.50;11.23;;;;;;;1.65;48.75;101294.53;5049559;28;20045;-70
2022/12/04 00:28:33;;;;;;;19.80;11.05;;;;;;;1.64;48.85;101300.88;5050375;28;20041;-70
2022/12/04 00:31:05;;;;;;;23.02;11.75;;;;;;;1.64;48.92;101292.78;5031017;28;20083;-71
2022/12/04 00:33:34;;;;;;;23.17;11.40;;;;;;;1.60;48.86;101293.84;5050696;28;20045;-70
2022/12/04 00:36:07;;;;;;;21.17;11.10;;;;;;;1.62;48.85;101282.03;5049602;28;20052;-71
2022/12/04 00:38:35;;;;;;;21.60;11.50;;;;;;;1.61;48.93;101291.06;5049950;28;20041;-71
2022/12/04 00:41:04;;;;;;;23.05;11.43;;;;;;;1.60;48.97;101288.44;5031453;28;20053;-71
2022/12/04 00:43:32;;;;;;;23.90;11.65;;;;;;;1.59;48.97;101274.06;5050317;28;20041;-70
2022/12/04 00:46:00;;;;;;;22.23;11.82;;;;;;;1.60;48.96;101264.16;5048562;28;20099;-71
2022/12/04 00:48:29;;;;;;;21.02;11.73;;;;;;;1.60;48.91;101261.47;5049955;28;20488;-71
2022/12/04 00:51:01;;;;;;;23.27;11.52;;;;;;;1.60;48.74;101265.03;5049398;28;20041;-71
2022/12/04 00:53:29;;;;;;;21.03;11.77;;;;;;;1.56;48.99;101282.31;5050367;28;20124;-70
2022/12/04 00:55:57;;;;;;;22.95;11.95;;;;;;;1.58;48.84;101277.75;5030901;28;20532;-72
2022/12/04 00:58:25;;;;;;;23.55;13.13;;;;;;;1.57;49.01;101278.69;5049825;28;20040;-71
2022/12/04 01:01:02;;;;;;;23.38;12.30;;;;;;;1.59;48.86;101282.16;5031027;28;20041;-71
2022/12/04 01:03:32;;;;;;;22.85;12.15;;;;;;;1.56;49.02;101281.44;5031725;28;20055;-71
2022/12/04 01:06:01;;;;;;;21.90;11.68;;;;;;;1.57;49.01;101280.50;5048969;28;20754;-71
2022/12/04 01:08:29;;;;;;;25.45;11.55;;;;;;;1.56;48.93;101281.44;5050024;28;20061;-71
2022/12/04 01:10:57;;;;;;;22.15;11.55;;;;;;;1.56;49.04;101279.63;5049001;28;20044;-71
2022/12/04 01:13:26;;;;;;;23.27;12.40;;;;;;;1.57;49.12;101277.81;5049334;28;20044;-70
2022/12/04 01:15:54;;;;;;;21.63;11.32;;;;;;;1.55;48.99;101285.94;5049010;28;20045;-70
2022/12/04 01:18:22;;;;;;;24.48;12.95;;;;;;;1.54;49.08;101283.31;5049646;28;20056;-71
2022/12/04 01:20:52;;;;;;;21.00;11.70;;;;;;;1.54;49.00;101281.50;5048386;28;20049;-71
2022/12/04 01:23:21;;;;;;;22.00;10.82;;;;;;;1.54;49.06;101281.50;5031631;28;20041;-70
2022/12/04 01:25:53;;;;;;;22.02;11.45;;;;;;;1.56;48.97;101285.00;5049029;28;20505;-71
2022/12/04 01:28:21;;;;;;;15.52;8.13;;;;;;;1.47;49.26;101283.59;5031502;28;20140;-71
2022/12/04 01:31:00;;;;;;;21.58;11.77;;;;;;;1.55;49.05;101285.06;5047933;28;20413;-71
2022/12/04 01:33:29;;;;;;;21.48;11.70;;;;;;;1.53;49.08;101287.84;5049617;28;20505;-71
2022/12/04 01:36:00;;;;;;;21.02;11.90;;;;;;;1.54;49.08;101281.50;5047899;28;20087;-71
2022/12/04 01:38:31;;;;;;;22.67;11.10;;;;;;;1.53;49.17;101282.44;5031337;28;20052;-70
2022/12/04 01:40:59;;;;;;;24.85;12.02;;;;;;;1.53;49.17;101293.22;5030369;28;20053;-71
2022/12/04 01:43:30;;;;;;;21.05;11.43;;;;;;;1.55;49.13;101290.47;5049219;28;20489;-71
2022/12/04 01:46:01;;;;;;;22.77;10.98;;;;;;;1.54;49.14;101283.31;5047431;28;20099;-71
2022/12/04 01:48:31;;;;;;;20.77;10.85;;;;;;;1.53;49.19;101274.34;5049750;28;20576;-70
2022/12/04 01:51:06;;;;;;;23.90;12.00;;;;;;;1.53;49.05;101268.94;5048630;28;20048;-71
2022/12/04 01:53:35;;;;;;;22.90;11.65;;;;;;;1.53;49.10;101274.34;5048365;28;20393;-71
2022/12/04 01:56:04;;;;;;;20.52;11.02;;;;;;;1.54;49.08;101275.22;5047892;28;20090;-71
2022/12/04 01:58:38;;;;;;;22.17;11.48;;;;;;;1.54;49.01;101257.22;5048533;28;20045;-70
2022/12/04 02:01:07;;;;;;;20.42;11.35;;;;;;;1.54;49.04;101259.03;5029482;28;20547;-71
2022/12/04 02:03:37;;;;;;;21.90;11.20;;;;;;;1.53;49.00;101252.75;5048811;28;20045;-71
2022/12/04 02:06:07;;;;;;;24.02;11.98;;;;;;;1.54;49.25;101265.31;5047902;28;20572;-70
2022/12/04 02:08:36;;;;;;;25.20;11.85;;;;;;;1.54;49.16;101256.34;5048398;28;20033;-71
2022/12/04 02:11:18;;;;;;;21.90;11.27;;;;;;;1.54;49.16;101254.53;5030239;28;20044;-70
2022/12/04 02:13:56;;;;;;;23.30;10.98;;;;;;;1.53;49.23;101252.75;5047923;28;20064;-71
2022/12/04 02:16:32;;;;;;;22.30;11.70;;;;;;;1.52;49.18;101269.88;5047842;28;20103;-70
2022/12/04 02:19:19;;;;;;;22.05;11.43;;;;;;;1.54;49.19;101267.13;5047778;28;20049;-71
2022/12/04 02:21:51;;;;;;;22.35;11.10;;;;;;;1.52;49.23;101269.00;5030477;28;20079;-70
2022/12/04 02:24:35;;;;;;;22.33;11.60;;;;;;;1.55;49.18;101271.59;5030019;28;20052;-70
2022/12/04 02:27:06;;;;;;;22.25;11.00;;;;;;;1.51;49.21;101260.03;5048234;28;20084;-72
2022/12/04 02:29:40;;;;;;;20.88;10.73;;;;;;;1.54;49.30;101256.34;5029620;28;20049;-71
2022/12/04 02:32:18;;;;;;;19.63;10.38;;;;;;;1.53;49.12;101251.88;5048118;28;20041;-70
2022/12/04 02:34:55;;;;;;;22.30;10.73;;;;;;;1.54;49.13;101261.72;5046611;28;20048;-71
2022/12/04 02:37:30;;;;;;;20.90;10.90;;;;;;;1.53;49.16;101251.88;5047752;28;20409;-70
2022/12/04 02:40:03;;;;;;;24.08;11.52;;;;;;;1.53;49.10;101246.50;5047091;28;20048;-71
2022/12/04 02:42:39;;;;;;;24.20;12.80;;;;;;;1.53;49.12;101263.56;5048009;28;20073;-70
2022/12/04 02:45:12;;;;;;;22.90;11.63;;;;;;;1.54;49.32;101253.66;5047446;28;20056;-72
2022/12/04 02:47:43;;;;;;;22.95;12.15;;;;;;;1.52;49.29;101263.63;5030005;28;20132;-71
2022/12/04 02:50:14;;;;;;;24.45;11.73;;;;;;;1.52;49.10;101259.09;5046808;28;20059;-70
2022/12/04 02:52:46;;;;;;;24.42;11.30;;;;;;;1.52;49.25;101261.78;5047912;28;20509;-70
2022/12/04 02:55:19;;;;;;;25.42;12.13;;;;;;;1.52;49.17;101260.91;5029052;28;20053;-70
2022/12/04 02:57:51;;;;;;;22.92;11.52;;;;;;;1.53;49.16;101266.25;5048049;28;20405;-71
2022/12/04 03:00:21;;;;;;;23.20;10.95;;;;;;;1.53;49.17;101250.06;5046864;28;20433;-71
2022/12/04 03:02:54;;;;;;;22.08;11.55;;;;;;;1.54;49.16;101256.34;5047886;28;20106;-71
2022/12/04 03:05:26;;;;;;;22.05;11.70;;;;;;;1.52;49.23;101263.63;5047111;28;20794;-71
2022/12/04 03:07:57;;;;;;;22.60;11.63;;;;;;;1.52;49.23;101263.63;5047154;28;20048;-71
2022/12/04 03:10:32;;;;;;;21.20;11.43;;;;;;;1.54;49.30;101267.13;5028646;28;20045;-71
2022/12/04 03:13:06;;;;;;;22.58;10.60;;;;;;;1.55;49.28;101271.59;5047756;28;20080;-70
2022/12/04 03:15:41;;;;;;;23.08;11.27;;;;;;;1.55;49.22;101267.06;5046801;28;20383;-71
2022/12/04 03:18:14;;;;;;;22.08;11.25;;;;;;;1.56;49.29;101270.66;5047061;28;20117;-71
2022/12/04 03:20:45;;;;;;;20.85;11.02;;;;;;;1.56;49.18;101273.34;5046932;28;20041;-71
2022/12/04 03:23:18;;;;;;;21.15;10.98;;;;;;;1.58;49.21;101272.34;5047894;28;20069;-70
2022/12/04 03:25:54;;;;;;;21.35;11.02;;;;;;;1.57;49.27;101262.50;5045558;28;20053;-71
2022/12/04 03:28:28;;;;;;;23.52;10.95;;;;;;;1.58;49.16;101268.75;5029463;28;20060;-71
2022/12/04 03:31:03;;;;;;;21.40;11.02;;;;;;;1.57;49.14;101262.50;5046576;28;20064;-71
2022/12/04 03:33:37;;;;;;;24.33;11.90;;;;;;;1.57;49.06;101267.88;5047526;28;20620;-70
2022/12/04 03:36:13;;;;;;;22.88;11.30;;;;;;;1.56;49.12;101268.81;5047160;28;20059;-71
2022/12/04 03:38:47;;;;;;;20.33;11.15;;;;;;;1.56;49.28;101268.81;5046352;28;20063;-71
2022/12/04 03:41:23;;;;;;;21.48;10.60;;;;;;;1.57;49.02;101267.00;5029629;28;20064;-72
2022/12/04 03:43:57;;;;;;;21.55;11.27;;;;;;;1.56;49.04;101267.94;5047447;28;20127;-71
2022/12/04 03:46:31;;;;;;;23.27;11.40;;;;;;;1.56;49.05;101265.25;5046499;28;20115;-72
2022/12/04 03:49:10;;;;;;;21.67;10.70;;;;;;;1.56;48.93;101265.25;5046051;28;20072;-70
2022/12/04 03:51:42;;;;;;;24.83;11.45;;;;;;;1.52;49.10;101253.72;5046419;28;20048;-71
2022/12/04 03:54:14;;;;;;;23.33;11.07;;;;;;;1.51;49.09;101257.34;5046274;28;20131;-71
2022/12/04 03:56:47;;;;;;;23.63;11.23;;;;;;;1.52;49.05;101275.28;5046959;28;20099;-70
2022/12/04 03:59:20;;;;;;;21.77;10.75;;;;;;;1.50;49.12;101266.41;5045651;28;20075;-71
2022/12/04 04:01:51;;;;;;;;;;;;;;;1.29;49.67;101256.53;5084189;22;20048;-81
2022/12/04 04:04:22;;;;;;;20.80;9.85;;;;;;;1.45;49.29;101254.91;5069401;28;19977;-81
2022/12/04 04:07:01;;;;;;;23.00;10.93;;;;;;;1.48;48.95;101244.00;5065551;28;20079;-81
2022/12/04 04:09:33;;;;;;;22.75;11.60;;;;;;;1.45;49.18;101247.72;5066065;28;20033;-80
2022/12/04 04:12:07;;;;;;;24.55;12.20;;;;;;;1.45;49.05;101265.72;5057884;28;20064;-80
2022/12/04 04:25:59;;;;;;;24.05;11.80;;;;;;;1.38;49.13;101270.50;5077064;28;20049;-81
2022/12/04 04:28:30;;;;;;;23.53;11.70;;;;;;;1.36;49.19;101271.50;5069917;28;20058;-81
2022/12/04 04:31:07;;;;;;;21.08;11.32;;;;;;;1.38;49.24;101272.31;5075766;28;20041;-81
2022/12/04 04:33:44;;;;;;;22.17;11.73;;;;;;;1.37;48.97;101263.34;5066888;28;20055;-81
2022/12/04 04:36:18;;;;;;;22.27;10.75;;;;;;;1.37;49.19;101263.34;5074957;28;20044;-80
2022/12/04 04:38:58;;;;;;;20.63;11.38;;;;;;;1.36;49.24;101264.28;5073845;28;20045;-80
2022/12/04 04:41:33;;;;;;;21.60;10.98;;;;;;;1.34;49.41;101258.06;5069857;28;20113;-81
2022/12/04 04:44:11;;;;;;;20.95;10.77;;;;;;;1.36;49.12;101264.28;5072225;28;20048;-81
2022/12/04 04:46:45;;;;;;;23.58;11.35;;;;;;;1.35;49.34;101265.22;5075710;28;20036;-81
2022/12/04 04:49:17;;;;;;;21.52;11.00;;;;;;;1.35;49.33;101262.53;5072688;28;20041;-81
2022/12/04 04:51:46;;;;;;;20.73;10.63;;;;;;;1.35;49.24;101261.66;5073132;28;20044;-81
2022/12/04 04:54:16;;;;;;;21.25;11.15;;;;;;;1.36;49.27;101252.63;5068602;28;20102;-81
2022/12/04 04:56:47;;;;;;;20.63;10.13;;;;;;;1.36;49.04;101263.41;5070035;28;20079;-81
2022/12/04 04:59:15;;;;;;;22.00;10.43;;;;;;;1.35;49.21;101262.53;5072095;28;20418;-81
2022/12/04 05:01:45;;;;;;;20.77;10.32;;;;;;;1.36;48.99;101269.69;5070914;28;20033;-80
2022/12/04 05:04:15;;;;;;;19.90;9.73;;;;;;;1.36;49.22;101249.94;5067199;28;20045;-81
2022/12/04 05:06:43;;;;;;;18.58;10.27;;;;;;;1.35;49.33;101249.03;5070297;28;20094;-81
2022/12/04 05:09:10;;;;;;;19.63;10.27;;;;;;;1.35;49.24;101246.34;5068492;28;21455;-80
2022/12/04 05:11:38;;;;;;;20.30;9.82;;;;;;;1.36;49.15;101247.22;5069148;28;20037;-80
2022/12/04 05:14:08;;;;;;;20.40;9.43;;;;;;;1.36;49.38;101249.94;5067378;28;20060;-80
2022/12/04 05:16:36;;;;;;;20.25;9.90;;;;;;;1.35;48.96;101251.75;5063197;28;20135;-81
2022/12/04 05:21:51;;;;;;;19.85;9.75;;;;;;;1.33;49.07;101250.97;5075170;28;20058;-81
2022/12/04 05:24:19;;;;;;;18.15;9.25;;;;;;;1.32;49.10;101257.28;5063495;28;20391;-81
2022/12/04 05:26:47;;;;;;;20.38;10.30;;;;;;;1.32;49.10;101256.41;5062868;28;20083;-81
2022/12/04 05:29:15;;;;;;;18.02;9.52;;;;;;;1.31;48.96;101251.94;5068101;28;20040;-80
2022/12/04 05:31:43;;;;;;;17.38;9.43;;;;;;;1.32;48.89;101253.72;5067150;28;20059;-80
2022/12/04 05:34:11;;;;;;;17.15;9.30;;;;;;;1.30;49.03;101242.97;5070817;28;20033;-80
2022/12/04 05:36:38;;;;;;;18.50;9.93;;;;;;;1.29;48.89;101241.22;5061379;28;20053;-81
2022/12/04 05:39:08;;;;;;;18.67;9.55;;;;;;;1.29;48.79;101251.13;5077342;28;20113;-80
2022/12/04 05:41:35;;;;;;;18.95;9.93;;;;;;;1.27;48.80;101250.31;5059546;28;20496;-80
2022/12/04 05:44:03;;;;;;;18.67;9.77;;;;;;;1.26;48.88;101251.28;5066415;28;20037;-81
2022/12/04 05:46:31;;;;;;;17.70;9.32;;;;;;;1.25;48.77;101254.91;5067305;28;20053;-80
2022/12/04 05:48:59;;;;;;;18.80;9.77;;;;;;;1.23;48.61;101244.19;5058233;28;20049;-80
2022/12/04 05:51:27;;;;;;;17.83;8.30;;;;;;;1.23;48.54;101246.00;5060406;28;20579;-80
2022/12/04 05:53:55;;;;;;;16.65;8.98;;;;;;;1.21;48.65;101250.59;5055884;28;20053;-80
2022/12/04 05:56:24;;;;;;;17.23;9.05;;;;;;;1.20;48.59;101248.81;5050334;28;20047;-81
2022/12/04 05:58:52;;;;;;;16.92;9.13;;;;;;;1.18;48.61;101246.19;5064431;28;20053;-81
2022/12/04 06:01:24;;;;;;;15.23;8.23;;;;;;;1.18;48.56;101248.88;5081076;28;20498;-79
2022/12/04 06:03:52;;;;;;;15.52;7.75;;;;;;;1.16;48.90;101249.91;5066703;28;20684;-79
2022/12/04 06:06:21;;;;;;;16.73;8.82;;;;;;;1.14;48.75;101244.59;5069166;28;20103;-80
2022/12/04 06:08:53;;;;;;;16.02;8.32;;;;;;;1.14;48.60;101254.50;5062796;28;20313;-80
2022/12/04 06:11:25;;;;;;;17.05;8.48;;;;;;;1.15;48.66;101250.84;5070003;28;20040;-79
2022/12/04 06:13:53;;;;;;;14.38;7.80;;;;;;;1.13;48.81;101252.72;5067271;28;20037;-82
2022/12/04 06:16:24;;;;;;;15.32;8.65;;;;;;;1.13;48.61;101252.72;5066419;28;20037;-80
2022/12/04 06:18:54;;;;;;;16.85;8.68;;;;;;;1.11;48.48;101253.66;5067125;28;20040;-79
2022/12/04 06:21:23;;;;;;;15.40;8.45;;;;;;;1.11;48.73;101256.38;5075496;28;20526;-79
2022/12/04 06:23:52;;;;;;;18.08;8.23;;;;;;;1.09;48.71;101250.16;5065003;28;20032;-80
2022/12/04 06:26:20;;;;;;;16.23;8.10;;;;;;;1.08;48.44;101256.50;5067072;28;20040;-79
2022/12/04 06:28:52;;;;;;;16.30;8.60;;;;;;;1.10;48.64;101251.91;5067941;28;20056;-79
2022/12/04 06:31:21;;;;;;;16.13;8.05;;;;;;;1.07;48.59;101260.16;5081976;28;20135;-80
2022/12/04 06:33:50;;;;;;;17.77;8.73;;;;;;;1.07;48.72;101268.22;5062563;28;20090;-80
2022/12/04 06:36:19;;;;;;;18.00;9.23;;;;;;;1.07;48.72;101259.25;5069427;28;20503;-80
2022/12/04 06:38:48;;;;;;;16.60;8.05;;;;;;;1.05;48.79;101261.13;5064449;28;20048;-81
2022/12/04 06:41:18;;;;;;;17.30;9.00;;;;;;;1.05;48.88;101264.72;5062722;28;20044;-79
2022/12/04 06:43:47;;;;;;;15.32;8.57;;;;;;;1.03;48.68;101263.00;5062427;28;20109;-81
2022/12/04 06:46:18;;;;;;;17.38;9.32;;;;;;;1.03;48.58;101268.41;5065728;28;20056;-81
2022/12/04 06:48:47;;;;;;;17.58;8.65;;;;;;;1.01;48.74;101270.31;5066460;28;20140;-79
2022/12/04 06:51:16;;;;;;;17.98;9.57;;;;;;;1.01;48.84;101270.31;5068599;28;20037;-81
2022/12/04 06:53:45;;;;;;;14.57;8.15;;;;;;;0.99;48.82;101267.66;5066114;28;20048;-80
2022/12/04 06:56:16;;;;;;;16.63;8.43;;;;;;;0.99;48.80;101272.19;5082091;28;20051;-81
2022/12/04 06:58:45;;;;;;;14.32;7.75;;;;;;;0.98;48.87;101279.38;5076326;28;20052;-81
2022/12/04 07:01:15;;;;;;;17.33;8.13;;;;;;;0.98;48.81;101276.69;5066274;28;20052;-79
2022/12/04 07:03:45;;;;;;;15.48;7.90;;;;;;;0.98;48.64;101278.50;5061619;28;20048;-82
2022/12/04 07:06:20;;;;;;;14.80;8.02;;;;;;;0.96;48.82;101275.88;5066730;28;20139;-81
2022/12/04 07:08:52;;;;;;;13.35;7.88;;;;;;;0.97;48.76;101271.34;5067175;28;20564;-81
2022/12/04 07:11:20;;;;;;;15.98;8.07;;;;;;;0.97;48.90;101268.66;5067584;28;20075;-82
2022/12/04 07:13:50;;;;;;;14.13;7.65;;;;;;;0.95;48.87;101265.16;5034210;28;20128;-81
2022/12/04 07:16:21;;;;;;;13.75;7.47;;;;;;;0.96;48.66;101262.41;5067255;28;20048;-79
2022/12/04 07:18:52;;;;;;;14.60;7.35;;;;;;;0.96;48.88;101265.09;5063927;28;20045;-80
2022/12/04 07:21:22;;;;;;;14.15;7.80;;;;;;;0.97;48.63;101265.97;5067741;28;20136;-81
2022/12/04 07:23:52;;;;;;;13.40;7.20;;;;;;;0.96;48.80;101270.47;5067146;28;20044;-80
2022/12/04 07:26:23;;;;;;;11.52;6.28;;;;;;;0.97;48.87;101269.53;5067405;28;20036;-80
2022/12/04 07:28:51;;;;;;;11.35;6.47;;;;;;;0.96;48.82;101273.19;5083562;28;20036;-79
2022/12/04 07:31:22;;;;;;;11.43;6.05;;;;;;;0.99;48.81;101283.84;5069398;28;20040;-79
2022/12/04 07:33:52;;;;;;;11.32;6.03;;;;;;;1.00;48.82;101284.72;5066297;28;20503;-81
2022/12/04 07:36:22;;;;;;;10.70;6.45;;;;;;;1.00;48.78;101288.28;5067364;28;20386;-80
2022/12/04 07:38:51;;;;;;;11.25;6.10;;;;;;;1.02;48.96;101274.72;5067355;28;20075;-81
2022/12/04 07:41:19;;;;;;;11.95;6.53;;;;;;;1.02;48.72;101281.00;5066677;28;20110;-79
2022/12/04 07:43:47;;;;;;;11.50;6.20;;;;;;;1.02;49.07;101285.50;5062872;28;20479;-82
2022/12/04 07:46:17;;;;;;;11.82;6.45;;;;;;;1.04;48.67;101289.03;5063838;28;20041;-80
2022/12/04 07:48:46;;;;;;;9.68;6.03;;;;;;;1.03;48.85;101292.66;5063322;28;20052;-82
2022/12/04 07:51:17;;;;;;;10.15;5.97;;;;;;;1.05;48.68;101296.19;5067743;28;20076;-79
2022/12/04 07:53:45;;;;;;;11.60;5.85;;;;;;;1.06;48.77;101300.63;5067082;28;20044;-80
2022/12/04 07:56:14;;;;;;;11.38;6.60;;;;;;;1.07;48.73;101300.56;5068222;28;20045;-81
2022/12/04 07:58:43;;;;;;;11.35;6.15;;;;;;;1.09;48.89;101300.53;5069255;28;20093;-79
2022/12/04 08:01:23;;;;;;;9.85;5.18;;;;;;;1.11;48.61;101298.63;5071235;28;20036;-80
2022/12/04 08:03:53;;;;;;;9.98;6.03;;;;;;;1.09;48.71;101303.22;5071499;28;20055;-80
2022/12/04 08:06:24;;;;;;;8.57;5.32;;;;;;;1.13;48.55;101304.81;5073392;28;20191;-80
2022/12/04 08:08:53;;;;;;;9.65;5.13;;;;;;;1.14;48.66;101297.63;5071673;28;20487;-82
2022/12/04 08:11:23;;;;;;;9.68;5.43;;;;;;;1.15;48.38;101302.06;5070593;28;20040;-79
2022/12/04 08:13:54;;;;;;;10.35;6.07;;;;;;;1.16;48.20;101301.13;5069763;28;20044;-80
2022/12/04 08:16:22;;;;;;;9.98;5.45;;;;;;;1.15;48.54;101304.78;5069307;28;20049;-80
2022/12/04 08:18:50;;;;;;;10.00;5.70;;;;;;;1.16;48.30;101303.84;5066053;28;20082;-80
2022/12/04 08:21:21;;;;;;;10.10;5.80;;;;;;;1.18;48.19;101302.81;5070944;28;20083;-80
2022/12/04 08:23:52;;;;;;;9.55;5.60;;;;;;;1.18;48.22;101300.09;5068106;28;20063;-80
2022/12/04 08:26:22;;;;;;;9.55;5.90;;;;;;;1.18;48.36;101297.41;5074224;28;20058;-80
2022/12/04 08:28:53;;;;;;;9.20;5.22;;;;;;;1.20;48.04;101295.53;5070328;28;20048;-81
2022/12/04 08:31:24;;;;;;;9.23;5.85;;;;;;;1.18;47.95;101294.72;5070934;28;20063;-81
2022/12/04 08:33:55;;;;;;;9.77;5.70;;;;;;;1.19;48.02;101307.25;5070725;28;20072;-80
2022/12/04 08:36:24;;;;;;;9.98;6.05;;;;;;;1.18;48.01;101305.50;5086889;28;20147;-80
2022/12/04 08:38:53;;;;;;;9.02;5.47;;;;;;;1.19;48.31;101301.88;5066092;28;20040;-80
2022/12/04 08:41:23;;;;;;;10.10;5.72;;;;;;;1.19;48.12;101301.88;5071432;28;20554;-81
2022/12/04 08:43:53;;;;;;;11.68;6.10;;;;;;;1.18;48.11;101305.50;5069718;28;20376;-82
2022/12/04 08:46:22;;;;;;;8.93;5.53;;;;;;;1.21;48.33;101299.13;5067825;28;20048;-82
2022/12/04 08:48:51;;;;;;;10.05;5.80;;;;;;;1.20;48.17;101309.03;5070318;28;20564;-81
2022/12/04 08:51:21;;;;;;;8.90;5.15;;;;;;;1.22;47.95;101303.56;5068058;28;20061;-81
2022/12/04 08:53:55;;;;;;;9.50;5.50;;;;;;;1.23;47.74;101299.94;5068443;28;20079;-81
2022/12/04 08:56:23;;;;;;;9.35;5.03;;;;;;;1.22;47.99;101306.25;5067407;28;20080;-81
2022/12/04 08:58:52;;;;;;;10.45;5.90;;;;;;;1.22;47.95;101301.75;5080941;28;20064;-81
2022/12/04 09:01:20;;;;;;;9.68;5.30;;;;;;;1.23;48.06;101303.50;5067363;28;20048;-83
2022/12/04 09:03:47;;;;;;;9.23;5.47;;;;;;;1.24;48.05;101301.69;5068690;28;20195;-82
2022/12/04 09:06:16;;;;;;;10.13;5.63;;;;;;;1.24;48.08;101304.38;5074872;28;20055;-82
2022/12/04 09:08:44;;;;;;;8.20;5.25;;;;;;;1.25;47.98;101301.63;5073272;28;20090;-80
2022/12/04 09:11:15;;;;;;;9.75;5.95;;;;;;;1.26;47.96;101306.06;5099586;28;20108;-81
2022/12/04 09:13:43;;;;;;;9.77;5.72;;;;;;;1.27;47.84;101301.53;5072949;28;20132;-82
2022/12/04 09:16:14;;;;;;;8.23;5.15;;;;;;;1.28;47.90;101297.91;5067107;28;20036;-82
2022/12/04 09:18:43;;;;;;;10.10;6.03;;;;;;;1.29;48.06;101300.53;5074838;28;20051;-82
2022/12/04 09:21:13;;;;;;;9.98;6.13;;;;;;;1.31;47.99;101295.09;5072143;28;20070;-81
2022/12/04 09:23:42;;;;;;;9.18;5.00;;;;;;;1.31;48.09;101295.97;5073667;28;20434;-81
2022/12/04 09:26:20;;;;;;;11.68;6.35;;;;;;;1.35;47.36;101289.50;5080099;28;20407;-81
2022/12/04 09:28:49;;;;;;;10.68;5.88;;;;;;;1.32;47.94;101297.72;5038495;28;20059;-81
2022/12/04 09:31:18;;;;;;;11.55;6.68;;;;;;;1.34;47.98;101295.81;5055202;28;20051;-81
2022/12/04 09:33:47;;;;;;;11.27;7.03;;;;;;;1.34;47.66;101303.06;5064493;28;20040;-81
2022/12/04 09:36:15;;;;;;;9.73;5.97;;;;;;;1.35;47.95;101302.97;5068726;28;20040;-81
2022/12/04 09:38:44;;;;;;;11.35;6.38;;;;;;;1.35;47.96;101308.38;5067063;28;20049;-81
2022/12/04 09:41:26;;;;;;;8.55;5.65;;;;;;;1.38;47.44;101304.69;5065854;28;20037;-82
2022/12/04 09:44:02;;;;;;;10.40;6.10;;;;;;;1.36;47.54;101314.63;5070239;28;20044;-82
2022/12/04 09:46:35;;;;;;;11.35;6.47;;;;;;;1.37;47.48;101319.97;5066214;28;20084;-82
2022/12/04 09:49:09;;;;;;;10.57;6.40;;;;;;;1.38;47.52;101329.81;5070995;28;20040;-81
2022/12/04 09:51:42;;;;;;;9.40;5.45;;;;;;;1.38;47.48;101326.25;5074928;28;20064;-82
2022/12/04 09:54:15;;;;;;;10.07;6.17;;;;;;;1.36;46.94;101328.13;5068810;28;20041;-81
2022/12/04 09:56:51;;;;;;;9.80;5.90;;;;;;;1.38;47.29;101324.44;5065511;28;20401;-81
2022/12/04 09:59:23;;;;;;;10.40;5.88;;;;;;;1.35;47.37;101327.25;5068443;28;20036;-81
2022/12/04 10:01:56;;;;;;;10.05;5.82;;;;;;;1.34;47.31;101320.09;5079003;22;20157;-72
2022/12/04 10:04:24;;;;;;;;;;;;;;;1.14;47.43;101319.19;5076348;28;20394;-73
2022/12/04 10:07:00;;;;;;;10.05;5.43;;;;;;;1.31;47.30;101313.97;5076046;28;19919;-73
2022/12/04 10:09:38;;;;;;;9.75;5.22;;;;;;;1.33;47.47;101312.09;5078860;28;20060;-72
2022/12/04 10:12:19;;;;;;;10.32;6.05;;;;;;;1.35;47.18;101310.19;5083413;28;20139;-75
2022/12/04 10:15:03;;;;;;;10.90;6.00;;;;;;;1.36;47.25;101306.56;5077804;28;20040;-73
2022/12/04 10:17:47;;;;;;;11.02;6.25;;;;;;;1.36;47.00;101311.94;5084998;28;20098;-73
2022/12/04 10:20:34;;;;;;;9.10;5.40;;;;;;;1.36;46.99;101306.56;5080510;28;20059;-72
2022/12/04 10:23:13;;;;;;;9.48;5.85;;;;;;;1.35;47.16;101310.19;5080819;28;20162;-72
2022/12/04 10:25:42;;;;;;;10.93;6.45;;;;;;;1.34;47.51;101305.75;5072642;28;20117;-72
2022/12/04 10:28:22;;;;;;;11.00;6.07;;;;;;;1.37;47.07;101302.91;5072434;28;20036;-72
2022/12/04 10:30:52;;;;;;;10.52;5.30;;;;;;;1.34;47.76;101295.81;5072374;28;20045;-77
2022/12/04 10:33:28;;;;;;;9.23;5.68;;;;;;;1.37;47.46;101298.41;5076557;28;20508;-71
2022/12/04 10:35:56;;;;;;;9.77;5.93;;;;;;;1.37;47.79;101290.31;5077114;28;20066;-71
2022/12/04 10:38:33;;;;;;;10.00;5.88;;;;;;;1.41;47.61;101285.69;5080052;28;20111;-73
2022/12/04 10:41:07;;;;;;;10.30;5.75;;;;;;;1.40;47.38;101290.19;5076567;28;20048;-71
2022/12/04 10:43:45;;;;;;;9.80;5.63;;;;;;;1.42;47.49;101287.44;5084333;28;20032;-73
2022/12/04 10:46:15;;;;;;;10.07;5.57;;;;;;;1.44;47.63;101289.09;5078262;28;20142;-74
2022/12/04 10:48:46;;;;;;;11.90;6.95;;;;;;;1.46;47.55;101286.34;5078015;28;20056;-74
2022/12/04 10:51:15;;;;;;;10.80;6.22;;;;;;;1.46;47.59;101284.53;5080936;28;20124;-75
2022/12/04 10:53:45;;;;;;;10.20;6.00;;;;;;;1.47;47.66;101285.41;5080088;28;20036;-74
2022/12/04 10:56:16;;;;;;;9.15;5.75;;;;;;;1.50;47.55;101271.81;5078350;28;20048;-74
2022/12/04 10:58:55;;;;;;;10.23;6.05;;;;;;;1.53;46.87;101270.78;5080594;28;20039;-75
2022/12/04 11:01:23;;;;;;;10.05;6.00;;;;;;;1.52;47.47;101271.72;5077547;28;20040;-75
2022/12/04 11:03:59;;;;;;;10.45;5.93;;;;;;;1.54;47.13;101268.00;5084292;28;20032;-74
2022/12/04 11:06:27;;;;;;;13.65;6.40;;;;;;;1.53;47.71;101263.56;5085635;28;20036;-73
2022/12/04 11:08:56;;;;;;;11.43;6.22;;;;;;;1.53;47.72;101260.84;5081281;28;20066;-72
2022/12/04 11:11:27;;;;;;;11.02;6.32;;;;;;;1.56;47.65;101254.47;5082440;28;20119;-72
2022/12/04 11:14:04;;;;;;;11.35;6.15;;;;;;;1.61;47.21;101247.91;5075322;28;20098;-72
2022/12/04 11:16:36;;;;;;;10.15;6.07;;;;;;;1.63;47.76;101247.84;5080995;28;20046;-71
2022/12/04 11:19:19;;;;;;;11.80;6.05;;;;;;;1.70;47.19;101241.22;5079021;28;20093;-72
2022/12/04 11:21:47;;;;;;;9.75;6.13;;;;;;;1.71;47.67;101240.28;5079770;28;20043;-72
2022/12/04 11:24:22;;;;;;;9.27;6.15;;;;;;;1.78;47.37;101241.75;5076397;28;20047;-71
2022/12/04 11:26:51;;;;;;;10.18;6.07;;;;;;;1.81;47.33;101233.53;5075070;28;20116;-70
2022/12/04 11:29:26;;;;;;;12.93;7.13;;;;;;;1.85;46.75;101236.00;5077882;28;20500;-70
2022/12/04 11:31:55;;;;;;;10.30;6.63;;;;;;;1.86;47.20;101235.06;5083372;28;20040;-70
2022/12/04 11:34:35;;;;;;;11.25;6.93;;;;;;;1.91;46.55;101231.31;5089320;28;20378;-70
2022/12/04 11:37:04;;;;;;;11.02;7.10;;;;;;;1.92;46.63;101233.06;5078958;28;20082;-70
2022/12/04 11:39:36;;;;;;;10.32;5.93;;;;;;;1.96;46.76;101237.34;5083892;28;20036;-71
2022/12/04 11:42:15;;;;;;;11.02;6.30;;;;;;;1.96;46.89;101237.34;5087262;28;20070;-71
2022/12/04 11:44:53;;;;;;;10.48;6.30;;;;;;;2.00;46.26;101233.59;5051175;28;20067;-70
2022/12/04 11:47:24;;;;;;;10.32;6.50;;;;;;;2.00;46.70;101230.88;5100892;28;20048;-72
2022/12/04 11:50:02;;;;;;;10.75;6.93;;;;;;;2.03;46.19;101228.03;5082244;28;20051;-73
2022/12/04 11:52:44;;;;;;;10.07;6.50;;;;;;;2.03;46.32;101226.19;5080803;28;20070;-71
2022/12/04 11:55:18;;;;;;;11.07;6.27;;;;;;;2.03;46.54;101215.41;5083467;28;20044;-71
2022/12/04 11:58:07;;;;;;;10.27;6.10;;;;;;;2.06;46.26;101219.78;5079252;28;20111;-70